Time;durP1;ratioP1;P1;durP2;ratioP2;P2;SDS_P1;SDS_P2;PMS_P1;PMS_P2;Temp;Humidity;BMP_temperature;BMP_pressure;BME280_temperature;BME280_humidity;BME280_pressure;Samples;Min_cycle;Max_cycle;Signal;HPM_P1;HPM_P2
2022/04/22 00:02:18;;;;;;;;;;;;;;;;;;5095321;28;19916;-30
2022/04/22 00:04:44;;;;;;;;;;;;;;;;;;5097703;28;19956;-28
2022/04/22 00:07:10;;;;;;;;;;;;;;;;;;5098423;28;20236;-29
2022/04/22 00:09:38;;;;;;;;;;;;;;;;;;5097432;28;20317;-26
2022/04/22 00:12:04;;;;;;;;;;;;;;;;;;5098449;28;19916;-29
2022/04/22 00:14:30;;;;;;;;;;;;;;;;;;5098539;28;19919;-29
2022/04/22 00:16:59;;;;;;;;;;;;;;;;;;5098232;28;19908;-32
2022/04/22 00:19:25;;;;;;;;;;;;;;;;;;5098135;28;19998;-27
2022/04/22 00:21:53;;;;;;;;;;;;;;;;;;5100692;28;19963;-23
2022/04/22 00:24:20;;;;;;;;;;;;;;;;;;5098315;28;19916;-30
2022/04/22 00:26:46;;;;;;;;;;;;;;;;;;5098316;28;19923;-28
2022/04/22 00:29:13;;;;;;;;;;;;;;;;;;5097986;28;20327;-27
2022/04/22 00:31:41;;;;;;;;;;;;;;;;;;5098016;28;19904;-24
2022/04/22 00:34:07;;;;;;;;;;;;;;;;;;5097938;28;19916;-26
2022/04/22 00:36:33;;;;;;;;;;;;;;;;;;5096889;28;19904;-26
2022/04/22 00:39:01;;;;;;;;;;;;;;;;;;5098400;28;20046;-27
2022/04/22 00:41:27;;;;;;;;;;;;;;;;;;5097725;28;20365;-26
2022/04/22 00:43:55;;;;;;;;;;;;;;;;;;5096631;28;19912;-27
2022/04/22 00:46:21;;;;;;;;;;;;;;;;;;5097987;28;19908;-24
2022/04/22 00:48:47;;;;;;;;;;;;;;;;;;5097581;28;20410;-26
2022/04/22 00:51:16;;;;;;;;;;;;;;;;;;5097863;28;20293;-26
2022/04/22 00:53:43;;;;;;;;;;;;;;;;;;5096467;28;19919;-24
2022/04/22 00:56:11;;;;;;;;;;;;;;;;;;5097479;28;19970;-25
2022/04/22 00:58:39;;;;;;;;;;;;;;;;;;5097447;28;20011;-26
2022/04/22 01:01:05;;;;;;;;;;;;;;;;;;5097239;28;19920;-26
2022/04/22 01:03:31;;;;;;;;;;;;;;;;;;5097416;28;19968;-27
2022/04/22 01:11:31;;;;;;;;;;;;;;;;;;5097468;28;19923;-27
2022/04/22 01:13:57;;;;;;;;;;;;;;;;;;5096711;28;19934;-29
2022/04/22 01:16:24;;;;;;;;;;;;;;;;;;5097105;28;19912;-27
2022/04/22 01:18:51;;;;;;;;;;;;;;;;;;5097078;28;19912;-29
2022/04/22 01:21:17;;;;;;;;;;;;;;;;;;5096705;28;19959;-24
2022/04/22 01:23:44;;;;;;;;;;;;;;;;;;5096986;28;19912;-27
2022/04/22 01:26:10;;;;;;;;;;;;;;;;;;5096975;28;19919;-24
2022/04/22 01:28:36;;;;;;;;;;;;;;;;;;5096879;28;19912;-25
2022/04/22 01:31:03;;;;;;;;;;;;;;;;;;5097037;28;19912;-31
2022/04/22 01:33:30;;;;;;;;;;;;;;;;;;5096714;28;20000;-27
2022/04/22 01:35:56;;;;;;;;;;;;;;;;;;5096654;28;19916;-27
2022/04/22 01:38:22;;;;;;;;;;;;;;;;;;5096922;28;19919;-30
2022/04/22 01:40:48;;;;;;;;;;;;;;;;;;5095571;28;20007;-28
2022/04/22 01:43:14;;;;;;;;;;;;;;;;;;5096489;28;19916;-24
2022/04/22 01:45:41;;;;;;;;;;;;;;;;;;5096542;28;20246;-30
2022/04/22 01:48:08;;;;;;;;;;;;;;;;;;5095440;28;19924;-28
2022/04/22 01:50:34;;;;;;;;;;;;;;;;;;5096679;28;19908;-26
2022/04/22 01:53:01;;;;;;;;;;;;;;;;;;5096244;28;19920;-26
2022/04/22 01:55:28;;;;;;;;;;;;;;;;;;5096554;28;19909;-27
2022/04/22 01:57:54;;;;;;;;;;;;;;;;;;5095286;28;20311;-29
2022/04/22 02:00:21;;;;;;;;;;;;;;;;;;5096225;28;20014;-34
2022/04/22 02:02:47;;;;;;;;;;;;;;;;;;5096422;28;20342;-30
2022/04/22 02:05:13;;;;;;;;;;;;;;;;;;5096243;28;19908;-28
2022/04/22 02:07:41;;;;;;;;;;;;;;;;;;5095115;28;20263;-25
2022/04/22 02:10:08;;;;;;;;;;;;;;;;;;5096028;28;20054;-26
2022/04/22 02:12:34;;;;;;;;;;;;;;;;;;5095896;28;19999;-31
2022/04/22 02:15:00;;;;;;;;;;;;;;;;;;5096241;28;19919;-28
2022/04/22 02:17:26;;;;;;;;;;;;;;;;;;5095929;28;19919;-26
2022/04/22 02:19:54;;;;;;;;;;;;;;;;;;5095736;28;19962;-28
2022/04/22 02:22:22;;;;;;;;;;;;;;;;;;5094489;28;19981;-31
2022/04/22 02:24:48;;;;;;;;;;;;;;;;;;5095104;28;20242;-25
2022/04/22 02:30:00;;;;;;;;;;;;;;;;;;5096098;28;19958;-30
2022/04/22 02:32:27;;;;;;;;;;;;;;;;;;5095862;28;19916;-27
2022/04/22 02:37:39;;;;;;;;;;;;;;;;;;5095648;28;20340;-25
2022/04/22 02:40:05;;;;;;;;;;;;;;;;;;5095431;28;19916;-28
2022/04/22 02:45:28;;;;;;;;;;;;;;;;;;5095473;28;19942;-26
2022/04/22 02:47:57;;;;;;;;;;;;;;;;;;5095717;28;20003;-27
2022/04/22 02:50:23;;;;;;;;;;;;;;;;;;5095349;28;19938;-27
2022/04/22 02:52:49;;;;;;;;;;;;;;;;;;5095489;28;19959;-26
2022/04/22 02:55:15;;;;;;;;;;;;;;;;;;5095192;28;19947;-30
2022/04/22 02:57:43;;;;;;;;;;;;;;;;;;5095468;28;19991;-28
2022/04/22 03:00:11;;;;;;;;;;;;;;;;;;5095069;28;19927;-26
2022/04/22 03:02:37;;;;;;;;;;;;;;;;;;5095119;28;19919;-27
2022/04/22 03:05:03;;;;;;;;;;;;;;;;;;5095214;28;20006;-31
2022/04/22 03:07:31;;;;;;;;;;;;;;;;;;5095148;28;19923;-28
2022/04/22 03:09:57;;;;;;;;;;;;;;;;;;5095118;28;19974;-26
2022/04/22 03:12:24;;;;;;;;;;;;;;;;;;5095101;28;20246;-28
2022/04/22 03:14:51;;;;;;;;;;;;;;;;;;5094023;28;19923;-30
2022/04/22 03:17:17;;;;;;;;;;;;;;;;;;5095001;28;20358;-27
2022/04/22 03:19:43;;;;;;;;;;;;;;;;;;5094895;28;19936;-25
2022/04/22 03:22:09;;;;;;;;;;;;;;;;;;5094635;28;20359;-27
2022/04/22 03:24:37;;;;;;;;;;;;;;;;;;5095109;28;20380;-28
2022/04/22 03:27:03;;;;;;;;;;;;;;;;;;5094783;28;19912;-24
2022/04/22 03:29:29;;;;;;;;;;;;;;;;;;5094805;28;19916;-29
2022/04/22 03:31:55;;;;;;;;;;;;;;;;;;5095059;28;19923;-29
2022/04/22 03:34:22;;;;;;;;;;;;;;;;;;5094673;28;19912;-29
2022/04/22 03:36:49;;;;;;;;;;;;;;;;;;5096716;28;19908;-26
2022/04/22 03:39:16;;;;;;;;;;;;;;;;;;5098979;28;19981;-24
2022/04/22 03:41:42;;;;;;;;;;;;;;;;;;5098729;28;19927;-27
2022/04/22 03:44:08;;;;;;;;;;;;;;;;;;5098915;28;20266;-30
2022/04/22 03:46:34;;;;;;;;;;;;;;;;;;5098711;28;19961;-28
2022/04/22 03:49:04;;;;;;;;;;;;;;;;;;5098726;28;19908;-26
2022/04/22 03:51:32;;;;;;;;;;;;;;;;;;5098824;28;19969;-29
2022/04/22 03:54:00;;;;;;;;;;;;;;;;;;5098443;28;19908;-24
2022/04/22 03:59:13;;;;;;;;;;;;;;;;;;5098226;28;20008;-32
2022/04/22 04:01:43;;;;;;;;;;;;;;;;;;5098485;28;19912;-30
2022/04/22 04:04:09;;;;;;;;;;;;;;;;;;5098244;28;19912;-27
2022/04/22 04:06:36;;;;;;;;;;;;;;;;;;5098640;28;20418;-33
2022/04/22 04:17:14;;;;;;;;;;;;;;;;;;5098118;28;19920;-27
2022/04/22 04:25:09;;;;;;;;;;;;;;;;;;5098019;28;20247;-30
2022/04/22 04:27:36;;;;;;;;;;;;;;;;;;5097673;28;20065;-31
2022/04/22 04:30:02;;;;;;;;;;;;;;;;;;5097907;28;19923;-27
2022/04/22 04:32:28;;;;;;;;;;;;;;;;;;5097542;28;19908;-27
2022/04/22 04:34:56;;;;;;;;;;;;;;;;;;5096364;28;19985;-28
2022/04/22 04:37:22;;;;;;;;;;;;;;;;;;5097506;28;20258;-26
2022/04/22 04:42:47;;;;;;;;;;;;;;;;;;5097268;28;20380;-30
2022/04/22 04:45:13;;;;;;;;;;;;;;;;;;5096126;28;19974;-26
2022/04/22 04:47:41;;;;;;;;;;;;;;;;;;5096576;28;19955;-28
2022/04/22 04:50:07;;;;;;;;;;;;;;;;;;5096822;28;19916;-30
2022/04/22 04:52:35;;;;;;;;;;;;;;;;;;5097188;28;19955;-29
2022/04/22 04:55:03;;;;;;;;;;;;;;;;;;5096907;28;19923;-27
2022/04/22 04:57:30;;;;;;;;;;;;;;;;;;5096869;28;19912;-28
2022/04/22 04:59:56;;;;;;;;;;;;;;;;;;5097497;28;19939;-29
2022/04/22 05:02:22;;;;;;;;;;;;;;;;;;5097013;28;20006;-30
2022/04/22 05:04:48;;;;;;;;;;;;;;;;;;5096343;28;19908;-29
2022/04/22 05:07:15;;;;;;;;;;;;;;;;;;5097374;28;20023;-32
2022/04/22 05:09:41;;;;;;;;;;;;;;;;;;5097042;28;19976;-34
2022/04/22 05:12:10;;;;;;;;;;;;;;;;;;5096806;28;20033;-28
2022/04/22 05:14:38;;;;;;;;;;;;;;;;;;5096965;28;20331;-28
2022/04/22 05:17:04;;;;;;;;;;;;;;;;;;5097038;28;19930;-28
2022/04/22 05:19:30;;;;;;;;;;;;;;;;;;5097480;28;20376;-30
2022/04/22 05:21:56;;;;;;;;;;;;;;;;;;5096782;28;19924;-28
2022/04/22 05:24:22;;;;;;;;;;;;;;;;;;5096610;28;19909;-29
2022/04/22 05:26:48;;;;;;;;;;;;;;;;;;5096541;28;19912;-27
2022/04/22 05:34:44;;;;;;;;;;;;;;;;;;5096867;28;19919;-28
2022/04/22 05:37:11;;;;;;;;;;;;;;;;;;5096124;28;19912;-25
2022/04/22 05:39:37;;;;;;;;;;;;;;;;;;5096448;28;20339;-31
2022/04/22 05:44:48;;;;;;;;;;;;;;;;;;5096131;28;19934;-30
2022/04/22 05:52:50;;;;;;;;;;;;;;;;;;5096148;28;20354;-33
2022/04/22 05:55:16;;;;;;;;;;;;;;;;;;5095860;28;19998;-33
2022/04/22 05:57:45;;;;;;;;;;;;;;;;;;5095753;28;19912;-30
2022/04/22 06:00:12;;;;;;;;;;;;;;;;;;5094384;28;20055;-29
2022/04/22 06:02:38;;;;;;;;;;;;;;;;;;5095491;28;19912;-31
2022/04/22 06:05:04;;;;;;;;;;;;;;;;;;5094818;28;19908;-29
2022/04/22 06:07:32;;;;;;;;;;;;;;;;;;5094704;28;19911;-31
2022/04/22 06:12:43;;;;;;;;;;;;;;;;;;5095330;28;19923;-36
2022/04/22 06:15:09;;;;;;;;;;;;;;;;;;5095176;28;20251;-26
2022/04/22 06:17:36;;;;;;;;;;;;;;;;;;5095239;28;19916;-33
2022/04/22 06:20:03;;;;;;;;;;;;;;;;;;5095213;28;19909;-33
2022/04/22 06:22:30;;;;;;;;;;;;;;;;;;5094802;28;19988;-33
2022/04/22 06:24:56;;;;;;;;;;;;;;;;;;5095109;28;19961;-27
2022/04/22 06:27:24;;;;;;;;;;;;;;;;;;5095573;28;19991;-30
2022/04/22 06:29:50;;;;;;;;;;;;;;;;;;5095070;28;19963;-30
2022/04/22 06:32:16;;;;;;;;;;;;;;;;;;5094990;28;20309;-32
2022/04/22 06:34:42;;;;;;;;;;;;;;;;;;5094832;28;20288;-30
2022/04/22 06:37:11;;;;;;;;;;;;;;;;;;5095249;28;19908;-31
2022/04/22 06:45:46;;;;;;;;;;;;;;;;;;5095205;28;19912;-31
2022/04/22 06:47:53;;;;;;;;;;;;;;;;;;5095628;28;19923;-34
2022/04/22 06:50:20;;;;;;;;;;;;;;;;;;5095290;28;20388;-34
2022/04/22 06:52:47;;;;;;;;;;;;;;;;;;5095410;28;20335;-29
2022/04/22 06:55:13;;;;;;;;;;;;;;;;;;5095164;28;19918;-28
2022/04/22 06:57:41;;;;;;;;;;;;;;;;;;5094953;28;19947;-29
2022/04/22 07:00:10;;;;;;;;;;;;;;;;;;5094932;28;19916;-31
2022/04/22 07:02:38;;;;;;;;;;;;;;;;;;5094915;28;19922;-32
2022/04/22 07:05:04;;;;;;;;;;;;;;;;;;5094956;28;20224;-34
2022/04/22 07:07:30;;;;;;;;;;;;;;;;;;5095016;28;19963;-28
2022/04/22 07:09:57;;;;;;;;;;;;;;;;;;5095299;28;19909;-32
2022/04/22 07:12:24;;;;;;;;;;;;;;;;;;5094549;28;19919;-31
2022/04/22 07:14:52;;;;;;;;;;;;;;;;;;5095002;28;19963;-32
2022/04/22 07:17:18;;;;;;;;;;;;;;;;;;5094802;28;19908;-30
2022/04/22 07:19:46;;;;;;;;;;;;;;;;;;5095109;28;19973;-27
2022/04/22 07:22:14;;;;;;;;;;;;;;;;;;5092823;28;20444;-27
2022/04/22 07:24:40;;;;;;;;;;;;;;;;;;5094854;28;19916;-32
2022/04/22 07:27:07;;;;;;;;;;;;;;;;;;5093550;28;19912;-28
2022/04/22 07:29:35;;;;;;;;;;;;;;;;;;5094717;28;19919;-27
2022/04/22 07:32:01;;;;;;;;;;;;;;;;;;5093356;28;19912;-26
2022/04/22 07:34:29;;;;;;;;;;;;;;;;;;5094303;28;19909;-27
2022/04/22 07:37:00;;;;;;;;;;;;;;;;;;5094818;28;19920;-24
2022/04/22 07:39:29;;;;;;;;;;;;;;;;;;5094312;28;19912;-27
2022/04/22 07:41:56;;;;;;;;;;;;;;;;;;5094301;28;19912;-29
2022/04/22 07:47:09;;;;;;;;;;;;;;;;;;5094026;28;20293;-28
2022/04/22 07:49:36;;;;;;;;;;;;;;;;;;5094023;28;20343;-23
2022/04/22 07:52:02;;;;;;;;;;;;;;;;;;5094563;28;20003;-29
2022/04/22 07:54:28;;;;;;;;;;;;;;;;;;5094056;28;19912;-31
2022/04/22 07:56:56;;;;;;;;;;;;;;;;;;5094432;28;19908;-32
2022/04/22 07:59:25;;;;;;;;;;;;;;;;;;5093435;28;19913;-31
2022/04/22 08:01:52;;;;;;;;;;;;;;;;;;5094001;28;20223;-28
2022/04/22 08:04:19;;;;;;;;;;;;;;;;;;5093856;28;20351;-30
2022/04/22 08:06:45;;;;;;;;;;;;;;;;;;5093853;28;19919;-32
2022/04/22 08:09:13;;;;;;;;;;;;;;;;;;5094022;28;20015;-30
2022/04/22 08:11:42;;;;;;;;;;;;;;;;;;5093982;28;20334;-25
2022/04/22 08:14:11;;;;;;;;;;;;;;;;;;5092718;28;19914;-25
2022/04/22 08:16:37;;;;;;;;;;;;;;;;;;5093909;28;19911;-29
2022/04/22 08:19:03;;;;;;;;;;;;;;;;;;5093709;28;19919;-30
2022/04/22 08:21:33;;;;;;;;;;;;;;;;;;5093412;28;19920;-28
2022/04/22 08:23:59;;;;;;;;;;;;;;;;;;5095546;28;19992;-26
2022/04/22 08:26:26;;;;;;;;;;;;;;;;;;5097714;28;20315;-28
2022/04/22 08:28:52;;;;;;;;;;;;;;;;;;5097611;28;19952;-26
2022/04/22 08:31:19;;;;;;;;;;;;;;;;;;5097224;28;19908;-27
2022/04/22 08:33:47;;;;;;;;;;;;;;;;;;5096046;28;19916;-27
2022/04/22 08:36:14;;;;;;;;;;;;;;;;;;5097135;28;19916;-27
2022/04/22 08:38:40;;;;;;;;;;;;;;;;;;5097475;28;19912;-24
2022/04/22 08:41:08;;;;;;;;;;;;;;;;;;5096647;28;19920;-26
2022/04/22 08:43:34;;;;;;;;;;;;;;;;;;5096509;28;20301;-27
2022/04/22 08:46:02;;;;;;;;;;;;;;;;;;5096568;28;19908;-29
2022/04/22 08:51:14;;;;;;;;;;;;;;;;;;5096632;28;19919;-26
2022/04/22 08:53:40;;;;;;;;;;;;;;;;;;5096350;28;19931;-29
2022/04/22 08:56:09;;;;;;;;;;;;;;;;;;5095324;28;20001;-27
2022/04/22 08:58:36;;;;;;;;;;;;;;;;;;5096330;28;20254;-28
2022/04/22 09:01:03;;;;;;;;;;;;;;;;;;5096313;28;19912;-26
2022/04/22 09:03:29;;;;;;;;;;;;;;;;;;5096264;28;19920;-25
2022/04/22 09:05:56;;;;;;;;;;;;;;;;;;5096501;28;19932;-24
2022/04/22 09:08:23;;;;;;;;;;;;;;;;;;5095096;28;19935;-27
2022/04/22 09:10:49;;;;;;;;;;;;;;;;;;5094994;28;19908;-30
2022/04/22 09:13:17;;;;;;;;;;;;;;;;;;5095795;28;19912;-25
2022/04/22 09:15:43;;;;;;;;;;;;;;;;;;5096114;28;20298;-27
2022/04/22 09:18:09;;;;;;;;;;;;;;;;;;5095851;28;19912;-30
2022/04/22 09:20:36;;;;;;;;;;;;;;;;;;5095827;28;19916;-27
2022/04/22 09:23:02;;;;;;;;;;;;;;;;;;5095662;28;19920;-23
2022/04/22 09:25:30;;;;;;;;;;;;;;;;;;5096101;28;19912;-25
2022/04/22 09:27:56;;;;;;;;;;;;;;;;;;5096289;28;19918;-23
2022/04/22 09:30:22;;;;;;;;;;;;;;;;;;5096269;28;19912;-24
2022/04/22 09:32:50;;;;;;;;;;;;;;;;;;5096150;28;19908;-29
2022/04/22 09:35:16;;;;;;;;;;;;;;;;;;5095805;28;20262;-32
2022/04/22 09:42:38;;;;;;;;;;;;;;;;;;5096301;28;20266;-31
2022/04/22 09:43:17;;;;;;;;;;;;;;;;;;5096068;28;19912;-25
2022/04/22 09:45:44;;;;;;;;;;;;;;;;;;5096141;28;19919;-31
2022/04/22 09:48:12;;;;;;;;;;;;;;;;;;5096140;28;19912;-28
2022/04/22 09:50:38;;;;;;;;;;;;;;;;;;5096256;28;19916;-28
2022/04/22 09:53:06;;;;;;;;;;;;;;;;;;5095688;28;19947;-28
2022/04/22 09:55:33;;;;;;;;;;;;;;;;;;5094625;28;20395;-30
2022/04/22 09:57:59;;;;;;;;;;;;;;;;;;5094624;28;20266;-27
2022/04/22 10:00:25;;;;;;;;;;;;;;;;;;5095648;28;19930;-25
2022/04/22 10:02:54;;;;;;;;;;;;;;;;;;5095444;28;19912;-24
2022/04/22 10:05:20;;;;;;;;;;;;;;;;;;5095744;28;19924;-29
2022/04/22 10:07:47;;;;;;;;;;;;;;;;;;5094624;28;19998;-28
2022/04/22 10:13:10;;;;;;;;;;;;;;;;;;5095431;28;20442;-27
2022/04/22 10:15:41;;;;;;;;;;;;;;;;;;5095303;28;20002;-24
2022/04/22 10:18:08;;;;;;;;;;;;;;;;;;5095358;28;19922;-28
2022/04/22 10:20:34;;;;;;;;;;;;;;;;;;5095257;28;20007;-28
2022/04/22 10:23:07;;;;;;;;;;;;;;;;;;5095062;28;19927;-29
2022/04/22 10:25:34;;;;;;;;;;;;;;;;;;5095235;28;19965;-29
2022/04/22 10:28:01;;;;;;;;;;;;;;;;;;5094988;28;19979;-26
2022/04/22 10:30:27;;;;;;;;;;;;;;;;;;5095030;28;19919;-26
2022/04/22 10:32:53;;;;;;;;;;;;;;;;;;5094538;28;19932;-26
2022/04/22 10:35:19;;;;;;;;;;;;;;;;;;5095143;28;19924;-26
2022/04/22 10:37:46;;;;;;;;;;;;;;;;;;5095134;28;20307;-25
2022/04/22 10:40:13;;;;;;;;;;;;;;;;;;5095058;28;19912;-28
2022/04/22 10:42:42;;;;;;;;;;;;;;;;;;5094783;28;19912;-26
2022/04/22 10:47:54;;;;;;;;;;;;;;;;;;5094321;28;19923;-28
2022/04/22 10:50:20;;;;;;;;;;;;;;;;;;5094669;28;20296;-27
2022/04/22 10:52:46;;;;;;;;;;;;;;;;;;5094975;28;20300;-27
2022/04/22 10:55:15;;;;;;;;;;;;;;;;;;5095010;28;20003;-26
2022/04/22 10:57:43;;;;;;;;;;;;;;;;;;5093162;28;20247;-27
2022/04/22 11:00:10;;;;;;;;;;;;;;;;;;5094153;28;19908;-27
2022/04/22 11:02:40;;;;;;;;;;;;;;;;;;5094057;28;19924;-24
2022/04/22 11:05:06;;;;;;;;;;;;;;;;;;5093896;28;19916;-25
2022/04/22 11:07:32;;;;;;;;;;;;;;;;;;5093955;28;19997;-26
2022/04/22 11:09:59;;;;;;;;;;;;;;;;;;5094167;28;19912;-27
2022/04/22 11:12:25;;;;;;;;;;;;;;;;;;5092791;28;19909;-27
2022/04/22 11:14:51;;;;;;;;;;;;;;;;;;5094278;28;19916;-27
2022/04/22 11:17:18;;;;;;;;;;;;;;;;;;5093816;28;20289;-26
2022/04/22 11:19:44;;;;;;;;;;;;;;;;;;5092824;28;20359;-27
2022/04/22 11:22:11;;;;;;;;;;;;;;;;;;5093708;28;20361;-31
2022/04/22 11:24:37;;;;;;;;;;;;;;;;;;5094136;28;19908;-25
2022/04/22 11:27:04;;;;;;;;;;;;;;;;;;5094334;28;19924;-27
2022/04/22 11:29:32;;;;;;;;;;;;;;;;;;5094654;28;20228;-29
2022/04/22 11:31:58;;;;;;;;;;;;;;;;;;5094492;28;19919;-27
2022/04/22 11:34:25;;;;;;;;;;;;;;;;;;5094073;28;20259;-32
2022/04/22 11:36:53;;;;;;;;;;;;;;;;;;5093020;28;20409;-31
2022/04/22 11:39:20;;;;;;;;;;;;;;;;;;5094525;28;19916;-27
2022/04/22 11:41:46;;;;;;;;;;;;;;;;;;5094018;28;19920;-26
2022/04/22 11:44:13;;;;;;;;;;;;;;;;;;5094441;28;19908;-31
2022/04/22 11:52:18;;;;;;;;;;;;;;;;;;5094563;28;20299;-28
2022/04/22 11:57:37;;;;;;;;;;;;;;;;;;5095556;28;19923;-25
2022/04/22 12:08:18;;;;;;;;;;;;;;;;;;5098096;28;20246;-31
2022/04/22 12:10:45;;;;;;;;;;;;;;;;;;5097894;28;19912;-26
2022/04/22 12:13:13;;;;;;;;;;;;;;;;;;5097805;28;19927;-30
2022/04/22 12:15:42;;;;;;;;;;;;;;;;;;5097859;28;19958;-31
2022/04/22 12:18:08;;;;;;;;;;;;;;;;;;5097815;28;19972;-27
2022/04/22 12:20:34;;;;;;;;;;;;;;;;;;5096425;28;20027;-28
2022/04/22 12:23:00;;;;;;;;;;;;;;;;;;5097137;28;19947;-26
2022/04/22 12:25:26;;;;;;;;;;;;;;;;;;5097497;28;19908;-29
2022/04/22 12:27:52;;;;;;;;;;;;;;;;;;5097338;28;19912;-30
2022/04/22 12:30:18;;;;;;;;;;;;;;;;;;5097355;28;19908;-33
2022/04/22 12:32:44;;;;;;;;;;;;;;;;;;5097678;28;19999;-25
2022/04/22 12:35:14;;;;;;;;;;;;;;;;;;5096169;28;19920;-30
2022/04/22 12:37:40;;;;;;;;;;;;;;;;;;5097150;28;19920;-28
2022/04/22 12:40:07;;;;;;;;;;;;;;;;;;5095815;28;19909;-33
2022/04/22 12:42:35;;;;;;;;;;;;;;;;;;5097325;28;20240;-28
2022/04/22 12:53:15;;;;;;;;;;;;;;;;;;5097127;28;19966;-27
2022/04/22 12:55:41;;;;;;;;;;;;;;;;;;5095863;28;19939;-29
2022/04/22 12:58:07;;;;;;;;;;;;;;;;;;5096948;28;19984;-32
2022/04/22 13:00:33;;;;;;;;;;;;;;;;;;5095736;28;19919;-28
2022/04/22 13:02:59;;;;;;;;;;;;;;;;;;5096757;28;19912;-27
2022/04/22 13:05:27;;;;;;;;;;;;;;;;;;5097356;28;19912;-25
2022/04/22 13:07:53;;;;;;;;;;;;;;;;;;5097127;28;20001;-29
2022/04/22 13:10:22;;;;;;;;;;;;;;;;;;5096355;28;19913;-29
2022/04/22 13:12:48;;;;;;;;;;;;;;;;;;5096713;28;20057;-28
2022/04/22 13:15:17;;;;;;;;;;;;;;;;;;5096851;28;19908;-26
2022/04/22 13:17:43;;;;;;;;;;;;;;;;;;5097005;28;20243;-28
2022/04/22 13:20:09;;;;;;;;;;;;;;;;;;5096852;28;19986;-27
2022/04/22 13:22:35;;;;;;;;;;;;;;;;;;5096267;28;20027;-28
2022/04/22 13:25:01;;;;;;;;;;;;;;;;;;5096545;28;19912;-29
2022/04/22 13:27:27;;;;;;;;;;;;;;;;;;5096639;28;19939;-33
2022/04/22 13:29:53;;;;;;;;;;;;;;;;;;5096619;28;20007;-28
2022/04/22 13:32:19;;;;;;;;;;;;;;;;;;5096638;28;20208;-28
2022/04/22 13:34:45;;;;;;;;;;;;;;;;;;5096389;28;19916;-30
2022/04/22 13:37:11;;;;;;;;;;;;;;;;;;5096450;28;20354;-31
2022/04/22 13:39:38;;;;;;;;;;;;;;;;;;5096321;28;19962;-28
2022/04/22 13:42:04;;;;;;;;;;;;;;;;;;5096236;28;19987;-30
2022/04/22 13:52:44;;;;;;;;;;;;;;;;;;5095908;28;20369;-29
2022/04/22 13:55:10;;;;;;;;;;;;;;;;;;5095889;28;19908;-29
2022/04/22 13:57:36;;;;;;;;;;;;;;;;;;5095890;28;19923;-32
2022/04/22 14:00:02;;;;;;;;;;;;;;;;;;5095703;28;19908;-26
2022/04/22 14:02:30;;;;;;;;;;;;;;;;;;5095722;28;20037;-24
2022/04/22 14:04:56;;;;;;;;;;;;;;;;;;5095831;28;20299;-31
2022/04/22 14:07:22;;;;;;;;;;;;;;;;;;5096289;28;19916;-26
2022/04/22 14:09:48;;;;;;;;;;;;;;;;;;5095718;28;19951;-28
2022/04/22 14:12:14;;;;;;;;;;;;;;;;;;5094824;28;19912;-30
2022/04/22 14:14:40;;;;;;;;;;;;;;;;;;5095730;28;19995;-29
2022/04/22 14:17:06;;;;;;;;;;;;;;;;;;5095807;28;20388;-29
2022/04/22 14:19:32;;;;;;;;;;;;;;;;;;5095438;28;19988;-31
2022/04/22 14:21:58;;;;;;;;;;;;;;;;;;5094241;28;19920;-31
2022/04/22 14:24:24;;;;;;;;;;;;;;;;;;5095646;28;19908;-28
2022/04/22 14:26:53;;;;;;;;;;;;;;;;;;5095402;28;19919;-27
2022/04/22 14:29:19;;;;;;;;;;;;;;;;;;5095317;28;20243;-29
2022/04/22 14:31:46;;;;;;;;;;;;;;;;;;5095154;28;19912;-26
2022/04/22 14:34:12;;;;;;;;;;;;;;;;;;5095202;28;19908;-29
2022/04/22 14:36:38;;;;;;;;;;;;;;;;;;5095232;28;19955;-28
2022/04/22 14:39:04;;;;;;;;;;;;;;;;;;5095142;28;19918;-31
2022/04/22 14:41:30;;;;;;;;;;;;;;;;;;5095299;28;19912;-28
2022/04/22 14:43:56;;;;;;;;;;;;;;;;;;5095113;28;19912;-25
2022/04/22 14:46:23;;;;;;;;;;;;;;;;;;5095023;28;19972;-25
2022/04/22 14:48:49;;;;;;;;;;;;;;;;;;5094973;28;19918;-26
2022/04/22 14:51:15;;;;;;;;;;;;;;;;;;5095330;28;19908;-28
2022/04/22 14:53:41;;;;;;;;;;;;;;;;;;5094984;28;20236;-29
2022/04/22 14:56:07;;;;;;;;;;;;;;;;;;5094971;28;20259;-24
2022/04/22 14:58:33;;;;;;;;;;;;;;;;;;5095222;28;19912;-28
2022/04/22 15:00:59;;;;;;;;;;;;;;;;;;5094918;28;20007;-29
2022/04/22 15:03:26;;;;;;;;;;;;;;;;;;5094274;28;19942;-34
2022/04/22 15:05:52;;;;;;;;;;;;;;;;;;5094394;28;19912;-28
2022/04/22 15:08:18;;;;;;;;;;;;;;;;;;5094775;28;19920;-27
2022/04/22 15:10:44;;;;;;;;;;;;;;;;;;5094400;28;20231;-29
2022/04/22 15:13:10;;;;;;;;;;;;;;;;;;5094071;28;20010;-31
2022/04/22 15:15:36;;;;;;;;;;;;;;;;;;5094424;28;19912;-28
2022/04/22 15:26:16;;;;;;;;;;;;;;;;;;5094302;28;19974;-29
2022/04/22 15:28:43;;;;;;;;;;;;;;;;;;5093904;28;19912;-29
2022/04/22 15:31:13;;;;;;;;;;;;;;;;;;5093864;28;19918;-29
2022/04/22 15:33:40;;;;;;;;;;;;;;;;;;5092458;28;19918;-28
2022/04/22 15:36:06;;;;;;;;;;;;;;;;;;5092863;28;19927;-29
2022/04/22 15:38:32;;;;;;;;;;;;;;;;;;5094177;28;19912;-27
2022/04/22 15:40:58;;;;;;;;;;;;;;;;;;5094278;28;19912;-27
2022/04/22 15:43:24;;;;;;;;;;;;;;;;;;5094151;28;19923;-31
2022/04/22 15:45:50;;;;;;;;;;;;;;;;;;5094076;28;19908;-28
2022/04/22 15:48:16;;;;;;;;;;;;;;;;;;5094243;28;19960;-29
2022/04/22 15:50:42;;;;;;;;;;;;;;;;;;5094778;28;19908;-27
2022/04/22 15:53:08;;;;;;;;;;;;;;;;;;5094882;28;20326;-28
2022/04/22 15:55:34;;;;;;;;;;;;;;;;;;5094313;28;19912;-29
2022/04/22 15:58:01;;;;;;;;;;;;;;;;;;5094403;28;19908;-31
2022/04/22 16:00:27;;;;;;;;;;;;;;;;;;5094381;28;19993;-29
2022/04/22 16:02:53;;;;;;;;;;;;;;;;;;5094412;28;19912;-30
2022/04/22 16:05:19;;;;;;;;;;;;;;;;;;5094281;28;19955;-27
2022/04/22 16:07:45;;;;;;;;;;;;;;;;;;5094310;28;19912;-26
2022/04/22 16:10:13;;;;;;;;;;;;;;;;;;5094390;28;19919;-24
2022/04/22 16:15:23;;;;;;;;;;;;;;;;;;5094074;28;20423;-28
2022/04/22 16:17:50;;;;;;;;;;;;;;;;;;5093936;28;19947;-27
2022/04/22 16:20:16;;;;;;;;;;;;;;;;;;5093861;28;20342;-27
2022/04/22 16:22:42;;;;;;;;;;;;;;;;;;5093622;28;20232;-31
2022/04/22 16:25:09;;;;;;;;;;;;;;;;;;5094056;28;19915;-25
2022/04/22 16:27:38;;;;;;;;;;;;;;;;;;5093869;28;19912;-29
2022/04/22 16:30:04;;;;;;;;;;;;;;;;;;5094306;28;20354;-29
2022/04/22 16:32:30;;;;;;;;;;;;;;;;;;5094170;28;19934;-27
2022/04/22 16:34:56;;;;;;;;;;;;;;;;;;5093866;28;20073;-29
2022/04/22 16:37:22;;;;;;;;;;;;;;;;;;5093818;28;20014;-30
2022/04/22 16:39:48;;;;;;;;;;;;;;;;;;5093751;28;19920;-26
2022/04/22 16:42:14;;;;;;;;;;;;;;;;;;5093844;28;19964;-27
2022/04/22 16:44:40;;;;;;;;;;;;;;;;;;5094152;28;19938;-25
2022/04/22 16:47:06;;;;;;;;;;;;;;;;;;5096464;28;20019;-28
2022/04/22 16:49:32;;;;;;;;;;;;;;;;;;5097488;28;19939;-25
2022/04/22 16:51:58;;;;;;;;;;;;;;;;;;5097486;28;19922;-26
2022/04/22 16:54:24;;;;;;;;;;;;;;;;;;5097712;28;20002;-32
2022/04/22 16:56:50;;;;;;;;;;;;;;;;;;5097365;28;19919;-27
2022/04/22 16:59:16;;;;;;;;;;;;;;;;;;5097290;28;19919;-30
2022/04/22 17:01:42;;;;;;;;;;;;;;;;;;5096915;28;19977;-32
2022/04/22 17:04:08;;;;;;;;;;;;;;;;;;5096966;28;19908;-27
2022/04/22 17:06:34;;;;;;;;;;;;;;;;;;5097024;28;19923;-31
2022/04/22 17:09:01;;;;;;;;;;;;;;;;;;5097196;28;19909;-28
2022/04/22 17:11:27;;;;;;;;;;;;;;;;;;5097142;28;19931;-27
2022/04/22 17:24:52;;;;;;;;;;;;;;;;;;5096755;28;19999;-31
2022/04/22 17:27:18;;;;;;;;;;;;;;;;;;5095679;28;20394;-30
2022/04/22 17:29:44;;;;;;;;;;;;;;;;;;5096670;28;19951;-28
2022/04/22 17:32:11;;;;;;;;;;;;;;;;;;5096662;28;20211;-27
2022/04/22 17:34:38;;;;;;;;;;;;;;;;;;5096520;28;19965;-31
2022/04/22 17:37:05;;;;;;;;;;;;;;;;;;5096364;28;19912;-25
2022/04/22 17:39:31;;;;;;;;;;;;;;;;;;5096372;28;20016;-31
2022/04/22 17:41:58;;;;;;;;;;;;;;;;;;5095633;28;19927;-31
2022/04/22 17:44:24;;;;;;;;;;;;;;;;;;5095699;28;20297;-27
2022/04/22 17:46:50;;;;;;;;;;;;;;;;;;5095736;28;19935;-27
2022/04/22 17:49:16;;;;;;;;;;;;;;;;;;5095610;28;20350;-27
2022/04/22 17:51:43;;;;;;;;;;;;;;;;;;5095450;28;19986;-24
2022/04/22 17:54:11;;;;;;;;;;;;;;;;;;5095822;28;19912;-29
2022/04/22 17:56:37;;;;;;;;;;;;;;;;;;5095229;28;19961;-27
2022/04/22 17:59:03;;;;;;;;;;;;;;;;;;5095629;28;19916;-28
2022/04/22 18:01:29;;;;;;;;;;;;;;;;;;5095162;28;19916;-31
2022/04/22 18:03:55;;;;;;;;;;;;;;;;;;5095609;28;20422;-32
2022/04/22 18:06:21;;;;;;;;;;;;;;;;;;5095576;28;19919;-26
2022/04/22 18:08:47;;;;;;;;;;;;;;;;;;5095937;28;19912;-30
2022/04/22 18:11:13;;;;;;;;;;;;;;;;;;5095337;28;19912;-27
2022/04/22 18:13:40;;;;;;;;;;;;;;;;;;5095185;28;19912;-27
2022/04/22 18:16:18;;;;;;;;;;;;;;;;;;5095157;28;19973;-27
2022/04/22 18:18:45;;;;;;;;;;;;;;;;;;5095145;28;20061;-26
2022/04/22 18:21:12;;;;;;;;;;;;;;;;;;5095040;28;20042;-33
2022/04/22 18:23:38;;;;;;;;;;;;;;;;;;5095235;28;20192;-25
2022/04/22 18:26:04;;;;;;;;;;;;;;;;;;5095590;28;19912;-26
2022/04/22 18:28:30;;;;;;;;;;;;;;;;;;5095492;28;19908;-27
2022/04/22 18:30:56;;;;;;;;;;;;;;;;;;5095492;28;19920;-27
2022/04/22 18:33:22;;;;;;;;;;;;;;;;;;5094408;28;19922;-31
2022/04/22 18:35:48;;;;;;;;;;;;;;;;;;5095483;28;20456;-31
2022/04/22 18:38:14;;;;;;;;;;;;;;;;;;5095670;28;20021;-26
2022/04/22 18:40:40;;;;;;;;;;;;;;;;;;5094130;28;19912;-27
2022/04/22 18:43:07;;;;;;;;;;;;;;;;;;5095181;28;19912;-28
2022/04/22 18:45:33;;;;;;;;;;;;;;;;;;5095513;28;19916;-31
2022/04/22 18:47:59;;;;;;;;;;;;;;;;;;5095229;28;20320;-31